Time;durP1;ratioP1;P1;durP2;ratioP2;P2;SDS_P1;SDS_P2;PMS_P1;PMS_P2;Temp;Humidity;BMP_temperature;BMP_pressure;BME280_temperature;BME280_humidity;BME280_pressure;Samples;Min_cycle;Max_cycle;Signal;HPM_P1;HPM_P2
2023/01/20 00:02:21;;;;;;;12.80;8.70;;;;;;;5.63;55.78;98142.78;7033096;28;20247;-81
2023/01/20 00:05:50;;;;;;;11.90;8.90;;;;;;;5.51;55.19;98143.44;7031671;28;20241;-81
2023/01/20 00:09:16;;;;;;;10.63;8.40;;;;;;;5.21;56.25;98142.72;7027601;28;20193;-82
2023/01/20 00:12:37;;;;;;;10.93;9.20;;;;;;;5.09;57.21;98159.41;7031431;28;20213;-81
2023/01/20 00:15:59;;;;;;;12.87;9.07;;;;;;;5.24;56.50;98128.97;7031541;28;20690;-81
2023/01/20 00:19:20;;;;;;;12.50;9.00;;;;;;;5.64;56.02;98159.63;7031729;28;20200;-82
2023/01/20 00:22:41;;;;;;;16.27;9.70;;;;;;;5.60;55.80;98153.03;7032010;28;20371;-81
2023/01/20 00:26:06;;;;;;;12.77;10.40;;;;;;;5.22;56.97;98160.41;7019109;28;20585;-81
2023/01/20 00:29:27;;;;;;;12.97;10.33;;;;;;;5.26;57.36;98156.31;7003489;28;20330;-81
2023/01/20 00:32:49;;;;;;;13.17;9.10;;;;;;;5.44;57.10;98150.59;7003760;28;20273;-82
2023/01/20 00:36:13;;;;;;;13.43;9.23;;;;;;;5.62;55.87;98154.50;7008098;28;20227;-82
2023/01/20 00:39:35;;;;;;;11.27;9.30;;;;;;;5.22;56.44;98181.78;7038125;28;20249;-81
2023/01/20 00:42:58;;;;;;;10.37;8.73;;;;;;;5.15;56.54;98164.00;7037892;28;20266;-81
2023/01/20 00:46:21;;;;;;;11.17;8.93;;;;;;;5.29;56.73;98173.81;7037307;28;20314;-81
2023/01/20 00:49:43;;;;;;;12.57;10.13;;;;;;;5.81;55.72;98171.78;7037364;28;20216;-82
2023/01/20 00:53:04;;;;;;;12.40;10.17;;;;;;;5.61;55.71;98176.06;7036797;28;20684;-81
2023/01/20 00:56:26;;;;;;;13.50;9.57;;;;;;;5.20;56.84;98189.13;7036692;28;20288;-82
2023/01/20 00:59:49;;;;;;;12.70;9.10;;;;;;;5.47;56.52;98199.16;7037937;28;20303;-81
2023/01/20 01:03:10;;;;;;;10.23;9.10;;;;;;;5.28;56.75;98186.38;7036590;28;20314;-81
2023/01/20 01:06:32;;;;;;;14.47;9.40;;;;;;;5.74;55.76;98194.91;7035611;28;20341;-81
2023/01/20 01:09:53;;;;;;;11.37;8.20;;;;;;;5.79;55.34;98195.19;7037870;28;20266;-80
2023/01/20 01:13:15;;;;;;;9.97;8.90;;;;;;;5.83;54.95;98202.66;7036232;28;20304;-82
2023/01/20 01:16:37;;;;;;;11.73;8.37;;;;;;;5.87;55.21;98205.78;7035236;28;20317;-81
2023/01/20 01:19:59;;;;;;;13.60;9.27;;;;;;;4.89;56.66;98201.06;7036123;28;20378;-81
2023/01/20 01:23:20;;;;;;;12.70;10.13;;;;;;;4.77;57.70;98216.69;7035672;28;20313;-81
2023/01/20 01:26:42;;;;;;;13.30;9.70;;;;;;;5.27;56.65;98205.25;7035462;28;20315;-81
2023/01/20 01:30:04;;;;;;;11.50;9.57;;;;;;;5.55;56.67;98223.09;7036251;28;20352;-82
2023/01/20 01:33:27;;;;;;;11.93;9.87;;;;;;;5.28;57.42;98229.13;7035020;28;20658;-81
2023/01/20 01:36:48;;;;;;;12.53;10.00;;;;;;;5.36;57.52;98226.34;7035142;28;20360;-81
2023/01/20 01:40:11;;;;;;;12.80;10.20;;;;;;;5.79;56.42;98230.75;7035314;28;20313;-81
2023/01/20 01:43:34;;;;;;;13.50;9.77;;;;;;;5.67;55.75;98234.94;7013452;28;20364;-81
2023/01/20 01:46:56;;;;;;;12.00;10.03;;;;;;;5.17;57.77;98239.44;7007667;28;20980;-81
2023/01/20 01:50:20;;;;;;;14.87;10.73;;;;;;;5.12;58.34;98239.19;7006688;28;20266;-82
2023/01/20 01:53:46;;;;;;;13.17;10.57;;;;;;;5.20;57.97;98221.19;7026813;28;20284;-82
2023/01/20 01:57:08;;;;;;;15.07;10.53;;;;;;;5.27;57.55;98227.47;7033945;28;20310;-81
2023/01/20 02:00:30;;;;;;;15.47;10.77;;;;;;;5.10;57.78;98231.34;7035407;28;20324;-81
2023/01/20 02:03:55;;;;;;;13.07;10.20;;;;;;;5.03;58.34;98233.13;7035354;28;20826;-81
2023/01/20 02:07:21;;;;;;;16.27;10.90;;;;;;;5.06;59.11;98239.91;7034144;28;20316;-82
2023/01/20 02:10:42;;;;;;;14.80;10.70;;;;;;;5.61;57.68;98224.19;7035423;28;20285;-81
2023/01/20 02:14:04;;;;;;;13.50;10.57;;;;;;;5.75;57.28;98239.38;7034305;28;20304;-81
2023/01/20 02:17:30;;;;;;;15.97;12.10;;;;;;;5.77;56.89;98227.47;7034547;28;20320;-81
2023/01/20 02:21:24;;;;;;;13.83;10.83;;;;;;;5.84;56.51;98240.94;7035668;28;20350;-82
2023/01/20 02:25:28;;;;;;;14.03;10.37;;;;;;;5.73;56.46;98239.53;6988396;28;20610;-81
2023/01/20 02:29:25;;;;;;;12.73;10.70;;;;;;;5.44;57.05;98258.34;7005601;28;20338;-82
2023/01/20 02:32:51;;;;;;;15.03;11.87;;;;;;;5.35;57.33;98250.59;6980919;28;20275;-82
2023/01/20 02:36:15;;;;;;;16.70;12.90;;;;;;;5.42;57.76;98256.88;7004759;28;20321;-82
2023/01/20 02:39:41;;;;;;;19.30;12.63;;;;;;;5.36;58.81;98245.06;7004658;28;20207;-82
2023/01/20 02:43:10;;;;;;;15.73;12.87;;;;;;;5.61;57.52;98251.75;7017745;28;20692;-81
2023/01/20 02:46:33;;;;;;;19.53;12.50;;;;;;;5.44;58.18;98253.00;7033269;28;21057;-81
2023/01/20 02:50:00;;;;;;;17.70;13.10;;;;;;;5.54;58.06;98261.53;7034107;28;20201;-82
2023/01/20 02:53:22;;;;;;;19.37;12.90;;;;;;;5.61;57.79;98261.63;7033997;28;20698;-82
2023/01/20 02:56:44;;;;;;;17.77;12.57;;;;;;;5.29;58.83;98268.19;7029877;28;20285;-81
2023/01/20 03:00:09;;;;;;;17.87;12.50;;;;;;;5.13;59.39;98276.41;7032793;28;20227;-81
2023/01/20 03:03:34;;;;;;;17.23;12.67;;;;;;;5.47;58.26;98281.16;7031024;28;20267;-82
2023/01/20 03:06:58;;;;;;;18.93;13.30;;;;;;;5.56;58.72;98264.88;7030492;28;20254;-82
2023/01/20 03:10:22;;;;;;;15.93;12.50;;;;;;;5.81;58.14;98274.25;7032010;28;20206;-81
2023/01/20 03:13:49;;;;;;;16.47;13.60;;;;;;;5.62;58.13;98271.31;7031065;28;20733;-81
2023/01/20 03:17:25;;;;;;;15.40;11.77;;;;;;;5.68;58.18;98275.91;6996692;28;20218;-81
2023/01/20 03:20:47;;;;;;;15.87;12.60;;;;;;;5.52;58.53;98289.47;7031399;28;20230;-82
2023/01/20 03:24:10;;;;;;;16.70;12.73;;;;;;;5.54;58.35;98298.16;7030325;28;20344;-81
2023/01/20 03:27:32;;;;;;;18.03;13.50;;;;;;;5.40;58.92;98291.78;7031059;28;20759;-81
2023/01/20 03:30:55;;;;;;;19.07;14.57;;;;;;;5.48;59.05;98301.56;7031222;28;20768;-82
2023/01/20 03:34:18;;;;;;;17.80;14.00;;;;;;;5.43;59.33;98290.59;7030898;28;20205;-82
2023/01/20 03:37:40;;;;;;;21.17;14.93;;;;;;;5.35;59.22;98285.31;7030116;28;20221;-82
2023/01/20 03:41:06;;;;;;;22.80;14.83;;;;;;;5.31;59.57;98287.53;7030546;28;20654;-81
2023/01/20 03:44:33;;;;;;;19.03;14.40;;;;;;;5.53;58.76;98302.66;7029712;28;20276;-82
2023/01/20 03:47:58;;;;;;;19.37;14.97;;;;;;;5.39;58.87;98279.44;7030206;28;20233;-81
2023/01/20 03:51:25;;;;;;;17.60;13.57;;;;;;;5.54;58.01;98309.66;7030941;28;20320;-81
2023/01/20 03:54:49;;;;;;;19.03;14.03;;;;;;;5.50;58.34;98321.75;7031147;28;20308;-82
2023/01/20 03:58:15;;;;;;;18.67;14.57;;;;;;;5.51;58.97;98318.06;7028839;28;20257;-82
2023/01/20 04:01:38;;;;;;;19.87;15.33;;;;;;;5.17;59.78;98312.44;7031092;28;20285;-81
2023/01/20 04:05:01;;;;;;;22.43;15.93;;;;;;;4.93;60.50;98328.72;7029948;28;20286;-82
2023/01/20 04:08:24;;;;;;;24.43;16.93;;;;;;;4.56;60.70;98274.47;7034088;28;20375;-81
2023/01/20 04:11:46;;;;;;;20.67;15.43;;;;;;;4.85;60.69;98318.06;7035007;28;20270;-82
2023/01/20 04:15:10;;;;;;;19.30;15.87;;;;;;;5.28;60.44;98332.53;7035278;28;20337;-81
2023/01/20 04:18:32;;;;;;;21.50;16.40;;;;;;;5.37;59.77;98340.25;7035840;28;20311;-81
2023/01/20 04:21:57;;;;;;;20.30;15.90;;;;;;;5.14;59.99;98338.69;7035721;28;20263;-82
2023/01/20 04:25:24;;;;;;;22.80;16.10;;;;;;;5.20;60.40;98332.63;7035089;28;20313;-82
2023/01/20 04:28:45;;;;;;;19.33;15.57;;;;;;;5.32;60.02;98345.31;7035362;28;20325;-82
2023/01/20 04:32:11;;;;;;;18.77;14.70;;;;;;;5.44;60.06;98343.03;7035452;28;20258;-82
2023/01/20 04:35:32;;;;;;;21.73;15.70;;;;;;;5.79;58.92;98355.66;7034777;28;20278;-81
2023/01/20 04:38:54;;;;;;;17.53;13.93;;;;;;;5.96;57.73;98325.84;7034625;28;20367;-82
2023/01/20 04:42:15;;;;;;;17.07;12.70;;;;;;;6.18;57.00;98348.16;7034846;28;20342;-82
2023/01/20 04:45:37;;;;;;;19.27;13.83;;;;;;;6.10;57.28;98354.47;7034300;28;20246;-82
2023/01/20 04:48:59;;;;;;;19.27;14.10;;;;;;;6.00;57.24;98356.59;7034426;28;20281;-81
2023/01/20 04:52:21;;;;;;;19.70;13.47;;;;;;;5.50;57.66;98297.69;7035598;28;20309;-82
2023/01/20 04:55:43;;;;;;;18.13;13.97;;;;;;;5.63;57.79;98364.72;7034856;28;20289;-81
2023/01/20 04:59:04;;;;;;;21.87;15.23;;;;;;;4.95;59.62;98360.59;7036413;28;20202;-81
2023/01/20 05:02:26;;;;;;;23.43;16.20;;;;;;;5.21;60.24;98377.03;7036322;28;20621;-82
2023/01/20 05:05:53;;;;;;;22.07;15.90;;;;;;;5.69;59.32;98388.03;7035489;28;20367;-82
2023/01/20 05:09:16;;;;;;;20.63;15.33;;;;;;;5.74;58.69;98388.31;7035615;28;20197;-82
2023/01/20 05:12:37;;;;;;;21.10;16.23;;;;;;;5.23;58.21;98319.72;7035414;28;20240;-81
2023/01/20 05:15:59;;;;;;;19.57;15.47;;;;;;;5.64;58.69;98393.09;7034986;28;20315;-82
2023/01/20 05:19:20;;;;;;;24.73;17.57;;;;;;;5.57;59.19;98405.56;7034365;28;20342;-81
2023/01/20 05:22:43;;;;;;;21.07;16.37;;;;;;;5.88;58.83;98398.22;7034768;28;20566;-81
2023/01/20 05:26:05;;;;;;;19.53;16.60;;;;;;;6.07;58.37;98404.84;7033213;28;20233;-82
2023/01/20 05:29:26;;;;;;;20.87;15.63;;;;;;;5.89;57.76;98393.69;7034736;28;20255;-82
2023/01/20 05:32:49;;;;;;;22.60;16.63;;;;;;;5.61;59.03;98417.53;7033784;28;20243;-81
2023/01/20 05:36:11;;;;;;;20.13;15.73;;;;;;;5.90;57.76;98398.03;7025192;28;20297;-82
2023/01/20 05:39:34;;;;;;;20.83;15.73;;;;;;;5.54;58.24;98416.59;7034939;28;20269;-82
2023/01/20 05:42:58;;;;;;;25.77;16.77;;;;;;;5.16;59.70;98423.00;7034281;28;20210;-81
2023/01/20 05:46:20;;;;;;;28.90;17.93;;;;;;;5.57;58.80;98432.31;7032635;28;20327;-83
2023/01/20 05:49:41;;;;;;;30.47;21.77;;;;;;;5.14;59.61;98429.53;7024086;28;20270;-81
2023/01/20 05:53:03;;;;;;;30.93;21.20;;;;;;;5.38;59.71;98430.16;7029922;28;20205;-81
2023/01/20 05:56:26;;;;;;;25.30;18.20;;;;;;;5.62;58.90;98435.25;7030962;28;20356;-81
2023/01/20 05:59:48;;;;;;;24.53;18.10;;;;;;;5.02;60.58;98428.31;7022979;28;20291;-79
2023/01/20 06:03:09;;;;;;;29.80;18.83;;;;;;;4.89;60.78;98434.22;7004605;28;20210;-81
2023/01/20 06:06:31;;;;;;;28.07;18.83;;;;;;;4.68;62.36;98442.06;7004173;28;20233;-81
2023/01/20 06:09:52;;;;;;;24.33;17.73;;;;;;;5.26;61.46;98434.25;7004385;28;20290;-81
2023/01/20 06:13:16;;;;;;;26.70;17.93;;;;;;;5.79;59.72;98447.41;7004698;28;20219;-80
2023/01/20 06:16:37;;;;;;;21.33;17.40;;;;;;;5.88;59.23;98450.88;7003920;28;20314;-81
2023/01/20 06:19:59;;;;;;;20.27;16.13;;;;;;;6.00;58.43;98447.56;7005961;28;20293;-80
2023/01/20 06:23:20;;;;;;;19.93;15.37;;;;;;;6.05;58.52;98447.00;7004406;28;20222;-81
2023/01/20 06:26:42;;;;;;;28.03;17.83;;;;;;;6.05;57.86;98457.69;7002749;28;20663;-80
2023/01/20 06:30:05;;;;;;;20.40;16.17;;;;;;;5.85;57.85;98451.25;7002105;28;20296;-80
2023/01/20 06:33:27;;;;;;;25.57;17.87;;;;;;;6.15;57.94;98468.97;7002727;28;20256;-78
2023/01/20 06:36:48;;;;;;;21.63;16.63;;;;;;;5.88;57.36;98470.44;7001265;28;20228;-80
2023/01/20 06:40:11;;;;;;;24.37;17.60;;;;;;;5.92;57.82;98485.13;7002067;28;20698;-80
2023/01/20 06:43:34;;;;;;;25.30;17.70;;;;;;;5.96;58.04;98488.25;7001941;28;20214;-80
2023/01/20 06:46:57;;;;;;;25.73;18.10;;;;;;;6.01;57.85;98485.88;7001651;28;20259;-80
2023/01/20 06:50:18;;;;;;;23.00;17.70;;;;;;;6.13;57.59;98503.94;7004334;28;20202;-81
2023/01/20 06:53:40;;;;;;;21.70;17.67;;;;;;;6.20;57.47;98507.53;7004454;28;20686;-80
2023/01/20 06:57:02;;;;;;;24.87;17.30;;;;;;;5.92;57.35;98469.06;7002981;28;20314;-81
2023/01/20 07:00:24;;;;;;;24.80;17.07;;;;;;;6.17;57.45;98512.41;7005487;28;20274;-78
2023/01/20 07:03:47;;;;;;;23.97;17.43;;;;;;;6.15;57.50;98506.44;7005080;28;20309;-81
2023/01/20 07:07:11;;;;;;;21.07;17.30;;;;;;;6.15;57.70;98520.66;7031677;28;20285;-81
2023/01/20 07:10:32;;;;;;;20.83;15.97;;;;;;;6.15;57.64;98534.03;7035317;28;20347;-81
2023/01/20 07:13:54;;;;;;;21.03;17.10;;;;;;;6.32;57.27;98535.50;7034821;28;20290;-81
2023/01/20 07:17:15;;;;;;;21.90;17.30;;;;;;;6.01;57.79;98529.50;7034429;28;20245;-80
2023/01/20 07:20:39;;;;;;;23.53;17.63;;;;;;;5.88;58.34;98542.66;7033717;28;20205;-80
2023/01/20 07:24:01;;;;;;;20.50;17.07;;;;;;;5.69;58.60;98542.31;7033114;28;20215;-81
2023/01/20 07:27:22;;;;;;;23.57;17.63;;;;;;;5.94;58.42;98557.16;7032158;28;20223;-81
2023/01/20 07:30:44;;;;;;;24.63;17.80;;;;;;;6.35;58.06;98556.56;7033387;28;20570;-80
2023/01/20 07:34:05;;;;;;;22.97;17.10;;;;;;;6.31;57.39;98562.47;7032044;28;20343;-82
2023/01/20 07:37:28;;;;;;;22.30;17.13;;;;;;;6.15;57.56;98568.84;7030633;28;20252;-78
2023/01/20 07:40:50;;;;;;;22.17;17.63;;;;;;;5.69;58.80;98558.34;7032098;28;20297;-80
2023/01/20 07:44:11;;;;;;;24.07;17.00;;;;;;;6.02;58.68;98568.59;7038531;28;20268;-83
2023/01/20 07:47:33;;;;;;;21.93;16.17;;;;;;;6.31;57.96;98576.66;7037563;28;20256;-80
2023/01/20 07:51:00;;;;;;;19.80;15.37;;;;;;;6.13;57.92;98578.88;7038863;28;20263;-80
2023/01/20 07:54:23;;;;;;;21.50;16.27;;;;;;;5.96;58.20;98577.38;7038178;28;20289;-80
2023/01/20 07:57:45;;;;;;;19.60;16.63;;;;;;;6.31;57.62;98598.09;7035938;28;20327;-80
2023/01/20 08:01:08;;;;;;;22.87;16.77;;;;;;;6.16;57.72;98602.59;7028495;28;20201;-80
2023/01/20 08:04:29;;;;;;;38.47;21.87;;;;;;;5.90;57.82;98604.84;7034155;28;20233;-80
2023/01/20 08:07:51;;;;;;;52.77;27.60;;;;;;;5.85;57.70;98585.00;7040721;28;20275;-80
2023/01/20 08:11:15;;;;;;;39.03;22.07;;;;;;;6.13;57.37;98613.66;7041176;28;20279;-80
2023/01/20 08:14:36;;;;;;;29.57;18.30;;;;;;;5.97;56.83;98578.19;7039939;28;20226;-80
2023/01/20 08:17:59;;;;;;;27.07;17.90;;;;;;;5.91;57.28;98597.66;7040454;28;20312;-80
2023/01/20 08:21:22;;;;;;;23.37;16.67;;;;;;;6.02;56.89;98624.81;7040695;28;20647;-80
2023/01/20 08:24:43;;;;;;;23.00;15.73;;;;;;;6.26;56.64;98618.41;7040438;28;20309;-80
2023/01/20 08:28:06;;;;;;;20.73;14.43;;;;;;;6.10;56.37;98589.97;7040988;28;20279;-80
2023/01/20 08:31:28;;;;;;;22.13;16.00;;;;;;;6.50;56.69;98618.16;7040651;28;20208;-80
2023/01/20 08:34:49;;;;;;;19.47;14.13;;;;;;;6.59;55.86;98644.66;7039008;28;20307;-80
2023/01/20 08:38:11;;;;;;;20.73;14.43;;;;;;;6.99;54.89;98648.72;7039304;28;20703;-80
2023/01/20 08:41:37;;;;;;;21.53;14.63;;;;;;;6.36;54.77;98603.72;7040325;28;20727;-81
2023/01/20 08:45:00;;;;;;;21.37;13.87;;;;;;;6.39;54.81;98640.88;7038020;28;20229;-80
2023/01/20 08:48:21;;;;;;;18.80;13.90;;;;;;;6.70;54.90;98644.19;7039740;28;20255;-81
2023/01/20 08:51:44;;;;;;;20.33;13.77;;;;;;;6.53;55.01;98639.19;7025349;28;20660;-80
2023/01/20 08:55:06;;;;;;;21.53;15.67;;;;;;;6.59;54.93;98675.94;7011940;28;20216;-80
2023/01/20 08:58:29;;;;;;;20.37;14.97;;;;;;;6.62;54.90;98664.88;7027949;28;20223;-80
2023/01/20 09:01:52;;;;;;;17.00;15.00;;;;;;;6.86;53.85;98662.78;7039745;28;20244;-80
2023/01/20 09:05:13;;;;;;;17.73;14.57;;;;;;;6.59;54.10;98644.66;7039083;28;20308;-81
2023/01/20 09:08:35;;;;;;;24.13;15.43;;;;;;;6.73;53.76;98675.16;7039341;28;20230;-81
2023/01/20 09:11:57;;;;;;;19.70;15.53;;;;;;;6.74;53.76;98672.28;7038859;28;20224;-81
2023/01/20 09:15:19;;;;;;;20.37;16.00;;;;;;;6.68;54.00;98677.53;7039179;28;20285;-81
2023/01/20 09:18:43;;;;;;;22.33;15.93;;;;;;;6.93;53.65;98695.00;7038833;28;20226;-81
2023/01/20 09:22:04;;;;;;;50.23;30.07;;;;;;;7.13;53.72;98694.25;7039298;28;20232;-81
2023/01/20 09:25:26;;;;;;;25.20;20.63;;;;;;;6.85;53.37;98693.25;7031288;28;20690;-81
2023/01/20 09:28:47;;;;;;;18.67;16.63;;;;;;;7.02;53.45;98697.41;7016477;28;20313;-80
2023/01/20 09:32:11;;;;;;;18.33;14.80;;;;;;;7.13;52.96;98686.22;7026075;28;20647;-81
2023/01/20 09:35:33;;;;;;;22.53;15.20;;;;;;;7.44;52.63;98688.69;7037687;28;20204;-80
2023/01/20 09:46:24;;;;;;;20.13;15.40;;;;;;;7.18;52.84;98705.25;7019806;28;20234;-81
2023/01/20 09:53:46;;;;;;;20.53;16.60;;;;;;;6.88;53.44;98690.22;7037717;28;20582;-80
2023/01/20 09:57:10;;;;;;;22.37;16.23;;;;;;;7.14;54.03;98706.66;7035961;28;20713;-81
2023/01/20 10:00:32;;;;;;;21.47;17.03;;;;;;;7.33;53.23;98698.06;7036527;28;20267;-84
2023/01/20 10:03:56;;;;;;;19.63;15.37;;;;;;;7.17;52.13;98643.78;7035425;28;20271;-81
2023/01/20 10:07:23;;;;;;;21.87;16.17;;;;;;;7.16;53.01;98693.91;7018045;28;20237;-81
2023/01/20 10:10:50;;;;;;;23.30;16.50;;;;;;;7.17;52.52;98706.28;7033919;28;20206;-81
2023/01/20 10:14:15;;;;;;;22.20;14.87;;;;;;;7.49;52.24;98708.53;7027653;28;20290;-80
2023/01/20 10:17:41;;;;;;;19.83;14.80;;;;;;;7.41;52.00;98664.91;7011857;28;20269;-80
2023/01/20 10:21:07;;;;;;;20.63;15.60;;;;;;;7.69;51.81;98716.84;7010083;28;20191;-81
2023/01/20 10:24:32;;;;;;;18.40;13.90;;;;;;;7.36;51.09;98688.81;7009001;28;20314;-78
2023/01/20 10:27:57;;;;;;;18.80;14.10;;;;;;;6.99;52.23;98710.34;7004211;28;20226;-78
2023/01/20 10:31:23;;;;;;;16.33;13.27;;;;;;;6.99;52.08;98708.50;7004423;28;20353;-79
2023/01/20 10:34:46;;;;;;;18.37;14.43;;;;;;;6.94;52.59;98735.03;7006792;28;20691;-82
2023/01/20 10:38:18;;;;;;;16.13;13.03;;;;;;;6.43;53.21;98724.34;7032900;28;20276;-80
2023/01/20 10:41:44;;;;;;;20.17;13.63;;;;;;;6.76;52.96;98728.34;7035154;28;20208;-82
2023/01/20 10:45:13;;;;;;;18.80;13.97;;;;;;;6.81;52.79;98717.91;7032455;28;20215;-84
2023/01/20 10:48:46;;;;;;;17.43;14.03;;;;;;;6.60;53.14;98683.81;7034611;28;20305;-82
2023/01/20 10:52:17;;;;;;;17.60;13.57;;;;;;;6.88;52.65;98722.38;7022331;28;20339;-81
2023/01/20 10:55:51;;;;;;;20.20;14.37;;;;;;;7.17;52.18;98708.13;7003626;28;20266;-80
2023/01/20 10:59:15;;;;;;;17.93;13.70;;;;;;;7.37;52.06;98719.97;7004985;28;20671;-81
2023/01/20 11:02:37;;;;;;;19.47;15.00;;;;;;;7.19;51.89;98711.47;7011204;28;20294;-81
2023/01/20 11:06:00;;;;;;;18.67;13.90;;;;;;;7.16;52.16;98726.06;7024239;28;20240;-80
2023/01/20 11:09:28;;;;;;;20.33;15.80;;;;;;;7.58;50.67;98710.13;7016158;28;20299;-81
2023/01/20 11:12:51;;;;;;;23.40;16.93;;;;;;;8.12;50.95;98727.44;7023992;28;20294;-80
2023/01/20 11:16:17;;;;;;;17.43;14.20;;;;;;;7.85;51.57;98714.75;7031725;28;20377;-81
2023/01/20 11:19:49;;;;;;;22.17;14.60;;;;;;;7.92;51.31;98722.88;7032657;28;20373;-81
2023/01/20 11:23:19;;;;;;;18.50;14.27;;;;;;;7.92;50.30;98710.28;7031926;28;20196;-80
2023/01/20 11:26:41;;;;;;;19.57;13.13;;;;;;;7.27;51.69;98730.97;7011361;28;20321;-82
2023/01/20 11:30:05;;;;;;;19.33;14.07;;;;;;;7.91;51.03;98724.72;7003186;28;20220;-81
2023/01/20 11:33:28;;;;;;;16.67;14.10;;;;;;;8.19;50.72;98722.94;7003520;28;20600;-81
2023/01/20 11:36:57;;;;;;;15.00;12.90;;;;;;;8.43;49.43;98724.44;7024085;28;20219;-80
2023/01/20 11:40:21;;;;;;;21.07;14.80;;;;;;;8.24;49.68;98728.59;7032435;28;20268;-81
2023/01/20 11:43:43;;;;;;;13.67;11.70;;;;;;;8.71;49.33;98734.19;7031510;28;20250;-80
2023/01/20 11:47:16;;;;;;;19.07;13.00;;;;;;;8.73;48.37;98734.81;7030795;28;20238;-80
2023/01/20 11:50:39;;;;;;;17.87;13.13;;;;;;;8.82;48.61;98735.50;7026151;28;20242;-80
2023/01/20 11:54:08;;;;;;;17.07;13.83;;;;;;;8.36;48.69;98721.69;7032364;28;20355;-81
2023/01/20 11:57:30;;;;;;;17.43;13.13;;;;;;;8.23;49.44;98729.63;7007157;28;20227;-81
2023/01/20 12:00:54;;;;;;;20.07;14.50;;;;;;;8.88;48.85;98735.56;7029626;28;20267;-80
2023/01/20 12:04:26;;;;;;;17.30;13.10;;;;;;;9.49;46.28;98723.91;7051516;28;20214;-79
2023/01/20 12:07:49;;;;;;;19.30;13.37;;;;;;;9.22;47.44;98741.78;7008581;28;20324;-80
2023/01/20 12:11:14;;;;;;;18.33;13.60;;;;;;;9.00;46.58;98742.06;7023111;28;20665;-80
2023/01/20 12:14:38;;;;;;;15.77;12.73;;;;;;;9.00;47.18;98725.91;7034960;28;20258;-79
2023/01/20 12:18:03;;;;;;;16.00;11.87;;;;;;;8.44;49.14;98740.34;7027001;28;20346;-80
2023/01/20 12:21:29;;;;;;;14.73;12.10;;;;;;;8.84;47.39;98741.53;7033459;28;20201;-80
2023/01/20 12:25:08;;;;;;;16.30;12.10;;;;;;;8.94;48.22;98748.22;7033530;28;20278;-79
2023/01/20 12:28:36;;;;;;;13.83;11.67;;;;;;;8.89;47.40;98749.84;7035479;28;20241;-81
2023/01/20 12:31:59;;;;;;;15.43;11.67;;;;;;;8.70;48.10;98756.72;7038680;28;20240;-81
2023/01/20 12:35:23;;;;;;;13.30;11.90;;;;;;;8.74;46.67;98733.81;7039773;28;20287;-80
2023/01/20 12:38:54;;;;;;;13.30;9.90;;;;;;;9.35;47.16;98754.47;7033071;28;20221;-79
2023/01/20 12:42:49;;;;;;;15.93;10.90;;;;;;;9.10;46.29;98746.03;7018065;28;20617;-80
2023/01/20 12:46:32;;;;;;;13.67;10.80;;;;;;;9.40;47.10;98760.91;7026361;28;20258;-80
2023/01/20 12:50:06;;;;;;;16.77;13.60;;;;;;;9.14;46.92;98768.84;7022977;28;20739;-80
2023/01/20 12:53:38;;;;;;;15.60;10.67;;;;;;;9.27;45.84;98746.59;7038372;28;20198;-79
2023/01/20 12:57:07;;;;;;;13.20;10.37;;;;;;;9.53;45.86;98766.41;7036488;28;20237;-80
2023/01/20 13:00:40;;;;;;;11.73;10.40;;;;;;;9.80;45.53;98767.34;7037515;28;20264;-79
2023/01/20 13:04:45;;;;;;;15.77;10.37;;;;;;;9.09;45.60;98763.22;7037662;28;20664;-80
2023/01/20 13:08:13;;;;;;;16.23;9.50;;;;;;;9.66;43.78;98771.00;7037441;28;20231;-79
2023/01/20 13:11:46;;;;;;;13.77;9.60;;;;;;;9.14;45.09;98763.47;7033396;28;20636;-80
2023/01/20 13:15:21;;;;;;;10.83;8.97;;;;;;;8.95;46.23;98768.69;7008767;28;20190;-79
2023/01/20 13:19:02;;;;;;;14.10;9.47;;;;;;;9.02;45.92;98758.00;7008315;28;20224;-79
2023/01/20 13:22:25;;;;;;;14.03;10.13;;;;;;;8.86;46.89;98753.75;7039397;28;20215;-80
2023/01/20 13:25:47;;;;;;;11.47;8.73;;;;;;;8.62;46.37;98770.31;7036040;28;20596;-80
2023/01/20 13:29:20;;;;;;;10.43;8.30;;;;;;;8.60;46.12;98740.09;7034572;28;20207;-80
2023/01/20 13:32:44;;;;;;;11.03;8.33;;;;;;;8.75;45.64;98748.91;7034591;28;20246;-80
2023/01/20 13:36:16;;;;;;;12.30;8.30;;;;;;;8.93;45.70;98759.16;7033127;28;20311;-80
2023/01/20 13:39:43;;;;;;;11.43;8.03;;;;;;;8.92;45.59;98769.09;7034038;28;20318;-80
2023/01/20 13:43:05;;;;;;;12.37;9.50;;;;;;;9.06;44.85;98754.72;7023106;28;20734;-80
2023/01/20 13:46:46;;;;;;;11.17;9.53;;;;;;;8.77;45.80;98764.84;7005304;28;20236;-80
2023/01/20 13:50:21;;;;;;;10.27;9.17;;;;;;;9.08;44.84;98771.47;7010679;28;20679;-79
2023/01/20 13:53:43;;;;;;;10.57;8.03;;;;;;;8.86;45.35;98777.09;7027294;28;20203;-80
2023/01/20 13:57:38;;;;;;;14.03;8.27;;;;;;;8.48;45.69;98783.81;7005464;28;20699;-79
2023/01/20 14:01:03;;;;;;;8.90;7.43;;;;;;;8.87;45.20;98770.69;7025192;28;20229;-79
2023/01/20 14:04:24;;;;;;;10.90;7.97;;;;;;;8.78;44.76;98766.50;7008922;28;20251;-77
2023/01/20 14:07:46;;;;;;;10.80;7.53;;;;;;;8.48;45.96;98768.50;7019041;28;20232;-80
2023/01/20 14:11:11;;;;;;;9.13;7.87;;;;;;;8.51;45.74;98789.63;7031756;28;20204;-80
2023/01/20 14:14:33;;;;;;;9.30;7.70;;;;;;;8.46;45.86;98793.91;7004187;28;20201;-79
2023/01/20 14:17:57;;;;;;;11.20;8.27;;;;;;;8.32;46.76;98794.81;7004400;28;20311;-80
2023/01/20 14:21:21;;;;;;;13.87;8.27;;;;;;;8.40;46.14;98800.03;7018660;28;20704;-80
2023/01/20 14:24:44;;;;;;;11.43;9.13;;;;;;;8.47;46.52;98768.69;7031827;28;20213;-79
2023/01/20 14:28:18;;;;;;;12.50;8.53;;;;;;;8.64;46.23;98792.44;7032205;28;20294;-80
2023/01/20 14:31:41;;;;;;;16.53;10.33;;;;;;;8.92;45.53;98801.38;7032148;28;20205;-80
2023/01/20 14:35:13;;;;;;;13.30;9.43;;;;;;;8.92;45.07;98803.22;7031169;28;20298;-80
2023/01/20 14:38:35;;;;;;;11.77;8.03;;;;;;;8.99;45.29;98794.19;7032243;28;20653;-79
2023/01/20 14:41:59;;;;;;;14.70;9.03;;;;;;;8.89;45.71;98795.56;7032415;28;20248;-80
2023/01/20 14:45:22;;;;;;;10.40;7.70;;;;;;;8.74;45.40;98779.50;7033285;28;20273;-80
2023/01/20 14:48:44;;;;;;;14.33;8.00;;;;;;;9.09;44.83;98802.75;7032781;28;20229;-80
2023/01/20 14:52:08;;;;;;;14.57;8.13;;;;;;;8.77;45.46;98776.41;7031824;28;20301;-80
2023/01/20 14:55:32;;;;;;;14.13;7.73;;;;;;;8.79;45.69;98812.00;7032144;28;20212;-81
2023/01/20 14:58:54;;;;;;;18.80;9.07;;;;;;;8.88;45.56;98816.22;7032690;28;20230;-80
2023/01/20 15:02:19;;;;;;;13.40;9.50;;;;;;;8.49;46.54;98805.09;7032754;28;20307;-80
2023/01/20 15:05:43;;;;;;;16.00;10.83;;;;;;;8.55;47.43;98833.88;7031262;28;20289;-80
2023/01/20 15:09:25;;;;;;;12.00;9.10;;;;;;;8.18;47.33;98796.47;7032321;28;20592;-80
2023/01/20 15:12:54;;;;;;;12.17;8.83;;;;;;;8.23;48.42;98834.38;7032402;28;20306;-80
2023/01/20 15:16:18;;;;;;;13.20;8.40;;;;;;;8.21;48.55;98832.91;7030799;28;20218;-80
2023/01/20 15:19:44;;;;;;;11.97;7.90;;;;;;;7.98;48.31;98797.28;7032641;28;20282;-80
2023/01/20 15:23:13;;;;;;;10.60;8.33;;;;;;;8.00;48.18;98843.56;7032015;28;20203;-80
2023/01/20 15:26:37;;;;;;;11.43;8.67;;;;;;;7.80;48.95;98837.09;7031148;28;20329;-80
2023/01/20 15:30:12;;;;;;;9.53;7.57;;;;;;;7.80;48.60;98843.31;7032685;28;20202;-80
2023/01/20 15:33:33;;;;;;;13.27;9.20;;;;;;;7.51;49.70;98854.06;7032947;28;20195;-80
2023/01/20 15:36:56;;;;;;;13.57;9.43;;;;;;;7.18;50.19;98831.28;7032435;28;20388;-80
2023/01/20 15:40:19;;;;;;;14.53;9.80;;;;;;;7.24;50.77;98857.34;7034205;28;20209;-80
2023/01/20 15:43:44;;;;;;;16.73;10.30;;;;;;;7.27;50.59;98859.69;7033996;28;20303;-80
2023/01/20 15:47:06;;;;;;;16.50;10.20;;;;;;;7.02;51.15;98827.94;7011931;28;20229;-80
2023/01/20 15:50:29;;;;;;;18.37;10.80;;;;;;;7.23;51.21;98858.38;7030196;28;20707;-80
2023/01/20 15:53:51;;;;;;;13.43;10.17;;;;;;;7.23;51.05;98869.09;7022455;28;20225;-80
2023/01/20 15:57:13;;;;;;;18.73;10.57;;;;;;;7.19;51.21;98878.50;7003677;28;20277;-80
2023/01/20 16:00:37;;;;;;;16.90;11.37;;;;;;;6.24;52.05;98819.34;7016975;28;20193;-80
2023/01/20 16:03:58;;;;;;;14.20;10.07;;;;;;;6.96;51.88;98874.22;7010000;28;20211;-80
2023/01/20 16:07:20;;;;;;;23.17;11.80;;;;;;;6.71;52.08;98873.56;7033006;28;20260;-80